createdAt,value
2017-05-04T00:00:59.452Z,12.2
2017-05-04T00:02:02.551Z,12.2
2017-05-04T00:03:04.891Z,12.1
2017-05-04T00:04:07.593Z,12.1
2017-05-04T00:05:10.299Z,12.1
2017-05-04T00:06:13.007Z,12.1
2017-05-04T00:07:16.132Z,12.1
2017-05-04T00:08:18.486Z,12.1
2017-05-04T00:09:21.324Z,12.1
2017-05-04T00:10:24.165Z,12.1
2017-05-04T00:11:26.375Z,12.1
2017-05-04T00:12:29.475Z,12.1
2017-05-04T00:13:32.885Z,12
2017-05-04T00:15:38.253Z,12
2017-05-04T00:16:40.090Z,12
2017-05-04T00:17:43.181Z,12
2017-05-04T00:18:45.408Z,12
2017-05-04T00:20:51.156Z,12
2017-05-04T00:21:53.998Z,12
2017-05-04T00:22:56.595Z,12
2017-05-04T00:23:59.438Z,12
2017-05-04T00:25:01.779Z,12
2017-05-04T00:26:04.629Z,12.1
2017-05-04T00:27:07.472Z,12
2017-05-04T00:28:10.433Z,12.1
2017-05-04T00:29:12.775Z,12
2017-05-04T00:30:15.485Z,12
2017-05-04T00:31:18.192Z,12
2017-05-04T00:33:23.743Z,12
2017-05-04T00:34:25.955Z,12
2017-05-04T00:35:28.660Z,12
2017-05-04T00:36:31.498Z,12
2017-05-04T00:37:34.204Z,12
2017-05-04T00:38:37.300Z,11.9
2017-05-04T00:39:39.637Z,12
2017-05-04T00:40:42.482Z,12
2017-05-04T00:42:47.719Z,12
2017-05-04T00:43:50.818Z,11.8
2017-05-04T00:44:52.894Z,11.9
2017-05-04T00:45:56.244Z,11.9
2017-05-04T00:46:58.585Z,11.9
2017-05-04T00:48:01.428Z,11.9
2017-05-04T00:49:05.094Z,11.9
2017-05-04T00:50:06.797Z,11.9
2017-05-04T00:51:09.646Z,12
2017-05-04T00:52:12.493Z,12
2017-05-04T00:53:14.835Z,12
2017-05-04T00:54:17.980Z,11.9
2017-05-04T00:56:23.096Z,11.9
2017-05-04T00:57:25.940Z,11.8
2017-05-04T00:58:28.290Z,11.8
2017-05-04T00:59:31.249Z,11.8
2017-05-04T01:00:34.094Z,11.8
2017-05-04T01:01:36.703Z,11.8
2017-05-04T01:02:39.586Z,11.8
2017-05-04T01:03:41.936Z,11.8
2017-05-04T01:04:45.035Z,11.8
2017-05-04T01:05:47.377Z,11.9
2017-05-04T01:07:52.493Z,11.9
2017-05-04T01:08:55.705Z,11.9
2017-05-04T01:09:58.351Z,11.8
2017-05-04T01:11:00.696Z,11.8
2017-05-04T01:12:03.401Z,11.8
2017-05-04T01:13:06.109Z,11.8
2017-05-04T01:14:08.949Z,11.8
2017-05-04T01:15:11.955Z,11.8
2017-05-04T01:16:14.299Z,11.8
2017-05-04T01:17:17.145Z,11.8
2017-05-04T01:18:19.989Z,11.8
2017-05-04T01:19:22.332Z,11.8
2017-05-04T01:20:25.429Z,11.8
2017-05-04T01:21:27.768Z,11.8
2017-05-04T01:22:30.611Z,11.8
2017-05-04T01:24:35.861Z,11.8
2017-05-04T01:25:39.009Z,11.8
2017-05-04T01:26:41.349Z,11.8
2017-05-04T01:27:44.191Z,11.8
2017-05-04T01:28:47.036Z,11.8
2017-05-04T01:29:49.378Z,11.8
2017-05-04T01:30:52.476Z,11.8
2017-05-04T01:31:55.377Z,11.8
2017-05-04T01:32:57.712Z,11.8
2017-05-04T01:34:01.110Z,11.8
2017-05-04T01:35:03.085Z,11.8
2017-05-04T01:36:06.096Z,11.8
2017-05-04T01:37:08.170Z,11.8
2017-05-04T01:38:11.017Z,11.8
2017-05-04T01:39:13.856Z,11.8
2017-05-04T01:40:16.698Z,11.8
2017-05-04T01:41:19.289Z,11.8
2017-05-04T01:42:22.131Z,11.8
2017-05-04T01:43:24.473Z,11.7
2017-05-04T01:44:27.315Z,11.7
2017-05-04T01:45:30.155Z,11.7
2017-05-04T01:46:33.252Z,11.7
2017-05-04T01:47:35.597Z,11.7
2017-05-04T01:48:37.941Z,11.7
2017-05-04T01:49:40.786Z,11.7
2017-05-04T01:50:43.627Z,11.7
2017-05-04T01:52:49.137Z,11.7
2017-05-04T01:53:51.479Z,11.7
2017-05-04T01:54:54.889Z,11.7
2017-05-04T01:55:57.223Z,11.7
2017-05-04T01:56:59.566Z,11.7
2017-05-04T01:58:02.660Z,11.7
2017-05-04T01:59:05.007Z,11.7
2017-05-04T02:00:07.851Z,11.6
2017-05-04T02:01:11.134Z,11.6
2017-05-04T02:02:13.471Z,11.6
2017-05-04T02:03:16.301Z,11.6
2017-05-04T02:04:18.375Z,11.7
2017-05-04T02:05:21.214Z,11.7
2017-05-04T02:06:24.051Z,11.6
2017-05-04T02:07:26.895Z,11.6
2017-05-04T02:08:29.531Z,11.6
2017-05-04T02:09:32.378Z,11.6
2017-05-04T02:10:34.729Z,11.6
2017-05-04T02:11:37.577Z,11.6
2017-05-04T02:12:40.285Z,11.6
2017-05-04T02:13:43.950Z,11.5
2017-05-04T02:14:45.793Z,11.5
2017-05-04T02:15:48.132Z,11.6
2017-05-04T02:16:51.377Z,11.5
2017-05-04T02:17:54.281Z,11.5
2017-05-04T02:18:56.791Z,11.5
2017-05-04T02:21:01.543Z,11.5
2017-05-04T02:23:07.297Z,11.5
2017-05-04T02:24:09.892Z,11.5
2017-05-04T02:25:12.606Z,11.5
2017-05-04T02:26:15.181Z,11.5
2017-05-04T02:27:18.023Z,11.5
2017-05-04T02:28:20.862Z,11.5
2017-05-04T02:29:23.378Z,11.6
2017-05-04T02:30:26.222Z,11.6
2017-05-04T02:31:28.571Z,11.5
2017-05-04T02:32:31.280Z,11.5
2017-05-04T02:33:34.054Z,11.5
2017-05-04T02:34:37.268Z,11.5
2017-05-04T02:35:39.619Z,11.5
2017-05-04T02:36:43.454Z,11.5
2017-05-04T02:37:44.803Z,11.5
2017-05-04T02:38:47.557Z,11.5
2017-05-04T02:39:50.524Z,11.5
2017-05-04T02:40:52.858Z,11.5
2017-05-04T02:41:55.700Z,11.5
2017-05-04T02:42:58.595Z,11.4
2017-05-04T02:44:01.305Z,11.4
2017-05-04T02:45:03.624Z,11.4
2017-05-04T02:46:06.194Z,11.4
2017-05-04T02:47:09.035Z,11.4
2017-05-04T02:49:14.786Z,11.4
2017-05-04T02:50:17.988Z,11.4
2017-05-04T02:51:19.825Z,11.4
2017-05-04T02:52:23.072Z,11.4
2017-05-04T02:53:25.278Z,11.5
2017-05-04T02:54:28.689Z,11.5
2017-05-04T02:55:31.142Z,11.5
2017-05-04T02:56:33.477Z,11.5
2017-05-04T02:57:36.326Z,11.5
2017-05-04T02:58:38.670Z,11.5
2017-05-04T02:59:41.517Z,11.5
2017-05-04T03:00:44.657Z,11.5
2017-05-04T03:01:46.866Z,11.4
2017-05-04T03:02:49.571Z,11.4
2017-05-04T03:03:52.409Z,11.4
2017-05-04T03:04:54.645Z,11.4
2017-05-04T03:05:57.742Z,11.4
2017-05-04T03:07:00.582Z,11.4
2017-05-04T03:08:02.916Z,11.4
2017-05-04T03:09:05.755Z,11.4
2017-05-04T03:10:08.465Z,11.4
2017-05-04T03:11:11.557Z,11.4
2017-05-04T03:12:13.761Z,11.4
2017-05-04T03:14:19.006Z,11.4
2017-05-04T03:15:21.847Z,11.3
2017-05-04T03:16:24.941Z,11.3
2017-05-04T03:17:27.278Z,11.3
2017-05-04T03:18:29.981Z,11.2
2017-05-04T03:19:32.821Z,11.2
2017-05-04T03:20:35.155Z,11.1
2017-05-04T03:21:38.293Z,11.2
2017-05-04T03:22:40.513Z,11.2
2017-05-04T03:23:43.352Z,11.2
2017-05-04T03:25:48.611Z,11.1
2017-05-04T03:26:51.705Z,11.2
2017-05-04T03:27:54.040Z,11.3
2017-05-04T03:28:56.749Z,11.3
2017-05-04T03:29:59.593Z,11.2
2017-05-04T03:31:02.299Z,11.2
2017-05-04T03:32:05.418Z,11.2
2017-05-04T03:33:07.625Z,11.1
2017-05-04T03:34:10.465Z,11.1
2017-05-04T03:35:12.659Z,11.1
2017-05-04T03:36:15.735Z,11.1
2017-05-04T03:37:18.834Z,11.1
2017-05-04T03:38:21.042Z,11.1
2017-05-04T03:39:23.748Z,11.1
2017-05-04T03:40:26.593Z,11.1
2017-05-04T03:41:29.476Z,11
2017-05-04T03:42:32.063Z,11.1
2017-05-04T03:43:34.409Z,11.1
2017-05-04T03:44:37.245Z,11.1
2017-05-04T03:45:39.614Z,11
2017-05-04T03:46:42.458Z,11
2017-05-04T03:47:45.601Z,11
2017-05-04T03:48:47.960Z,11
2017-05-04T03:49:50.813Z,11
2017-05-04T03:50:53.153Z,11
2017-05-04T03:51:55.994Z,11
2017-05-04T03:52:59.084Z,11
2017-05-04T03:55:03.693Z,11
2017-05-04T03:56:06.816Z,11
2017-05-04T03:57:09.156Z,11
2017-05-04T03:58:12.247Z,11
2017-05-04T03:59:14.453Z,11
2017-05-04T04:00:17.288Z,11
2017-05-04T04:01:20.122Z,11
2017-05-04T04:02:22.830Z,11
2017-05-04T04:03:26.479Z,11
2017-05-04T04:04:28.318Z,11
2017-05-04T04:05:30.657Z,11
2017-05-04T04:06:33.367Z,11
2017-05-04T04:07:36.207Z,11
2017-05-04T04:08:39.350Z,11
2017-05-04T04:09:42.232Z,11
2017-05-04T04:10:43.930Z,11
2017-05-04T04:11:46.772Z,11
2017-05-04T04:13:52.776Z,11
2017-05-04T04:15:57.906Z,11
2017-05-04T04:17:00.302Z,10.9
2017-05-04T04:18:03.141Z,11
2017-05-04T04:19:06.238Z,10.9
2017-05-04T04:20:08.446Z,10.9
2017-05-04T04:21:11.149Z,10.9
2017-05-04T04:22:13.857Z,10.9
2017-05-04T04:23:16.697Z,10.8
2017-05-04T04:24:19.064Z,10.8
2017-05-04T04:25:21.902Z,10.8
2017-05-04T04:26:24.748Z,10.8
2017-05-04T04:27:27.084Z,10.8
2017-05-04T04:28:29.924Z,10.8
2017-05-04T04:29:33.070Z,10.8
2017-05-04T04:30:35.271Z,10.8
2017-05-04T04:31:38.118Z,10.8
2017-05-04T04:32:40.822Z,10.8
2017-05-04T04:33:43.024Z,10.8
2017-05-04T04:35:49.073Z,10.7
2017-05-04T04:36:51.408Z,10.7
2017-05-04T04:37:53.751Z,10.7
2017-05-04T04:38:56.599Z,10.7
2017-05-04T04:39:59.443Z,10.6
2017-05-04T04:41:02.007Z,10.6
2017-05-04T04:42:04.848Z,10.6
2017-05-04T04:43:07.182Z,10.6
2017-05-04T04:44:10.024Z,10.6
2017-05-04T04:45:12.867Z,10.6
2017-05-04T04:46:15.825Z,10.6
2017-05-04T04:47:18.165Z,10.6
2017-05-04T04:48:21.009Z,10.6
2017-05-04T04:49:23.355Z,10.6
2017-05-04T04:50:26.192Z,10.6
2017-05-04T04:51:29.341Z,10.5
2017-05-04T04:52:31.678Z,10.6
2017-05-04T04:53:34.026Z,10.6
2017-05-04T04:54:36.868Z,10.6
2017-05-04T04:55:39.705Z,10.6
2017-05-04T04:56:42.306Z,10.5
2017-05-04T04:58:47.422Z,10.6
2017-05-04T05:02:59.293Z,10.6
2017-05-04T05:04:01.129Z,10.6
2017-05-04T05:05:03.466Z,10.6
2017-05-04T05:13:25.417Z,10.6
2017-05-04T05:14:27.760Z,10.6
2017-05-04T05:15:30.600Z,10.6
2017-05-04T05:16:32.940Z,10.6
2017-05-04T05:18:38.488Z,10.8
2017-05-04T05:19:41.196Z,10.8
2017-05-04T05:20:43.539Z,10.8
2017-05-04T05:21:46.428Z,10.7
2017-05-04T05:22:49.264Z,10.7
2017-05-04T05:23:51.901Z,10.7
2017-05-04T05:24:54.232Z,10.6
2017-05-04T05:25:57.070Z,10.6
2017-05-04T05:26:59.910Z,10.6
2017-05-04T05:28:02.752Z,10.6
2017-05-04T05:29:05.342Z,10.6
2017-05-04T05:30:07.677Z,10.6
2017-05-04T05:32:13.290Z,10.6
2017-05-04T05:33:16.132Z,10.6
2017-05-04T05:34:18.717Z,10.6
2017-05-04T05:35:21.613Z,10.6
2017-05-04T05:36:23.951Z,10.6
2017-05-04T05:37:26.794Z,10.6
2017-05-04T05:38:29.129Z,10.6
2017-05-04T05:39:32.230Z,10.6
2017-05-04T05:40:34.567Z,10.6
2017-05-04T05:41:37.405Z,10.6
2017-05-04T05:42:39.744Z,10.6
2017-05-04T05:43:42.590Z,10.6
2017-05-04T05:44:45.680Z,10.6
2017-05-04T05:45:48.019Z,10.6
2017-05-04T05:46:51.421Z,10.6
2017-05-04T05:47:53.252Z,10.6
2017-05-04T05:48:56.089Z,10.6
2017-05-04T05:49:59.230Z,10.6
2017-05-04T05:51:02.113Z,10.6
2017-05-04T05:52:03.949Z,10.6
2017-05-04T05:53:06.661Z,10.6
2017-05-04T05:55:12.163Z,10.6
2017-05-04T05:56:15.570Z,10.6
2017-05-04T05:57:17.404Z,10.6
2017-05-04T05:58:20.243Z,10.6
2017-05-04T05:59:22.586Z,10.5
2017-05-04T06:00:25.787Z,10.4
2017-05-04T06:01:28.123Z,10.5
2017-05-04T06:02:30.967Z,10.5
2017-05-04T06:03:33.359Z,10.5
2017-05-04T06:04:36.199Z,10.5
2017-05-04T06:05:39.342Z,10.5
2017-05-04T06:06:41.725Z,10.5
2017-05-04T06:07:44.059Z,10.4
2017-05-04T06:08:46.907Z,10.5
2017-05-04T06:09:49.758Z,10.4
2017-05-04T06:10:52.400Z,10.4
2017-05-04T06:11:54.733Z,10.4
2017-05-04T06:12:57.571Z,10.4
2017-05-04T06:14:00.411Z,10.3
2017-05-04T06:15:02.751Z,10.3
2017-05-04T06:16:05.769Z,10.3
2017-05-04T06:17:08.341Z,10.3
2017-05-04T06:18:10.916Z,10.3
2017-05-04T06:19:13.756Z,10.3
2017-05-04T06:20:16.019Z,10.3
2017-05-04T06:21:18.980Z,10.3
2017-05-04T06:22:21.823Z,10.3
2017-05-04T06:23:23.891Z,10.3
2017-05-04T06:24:26.736Z,10.3
2017-05-04T06:25:29.571Z,10.3
2017-05-04T06:26:32.523Z,10.3
2017-05-04T06:28:37.765Z,10.2
2017-05-04T06:29:40.105Z,10.1
2017-05-04T06:30:42.943Z,10.1
2017-05-04T06:31:45.767Z,10.2
2017-05-04T06:32:48.016Z,10.2
2017-05-04T06:34:54.339Z,10.3
2017-05-04T06:35:56.172Z,10.3
2017-05-04T06:36:59.264Z,10.3
2017-05-04T06:38:01.605Z,10.3
2017-05-04T06:39:04.306Z,10.3
2017-05-04T06:40:07.013Z,10.3
2017-05-04T06:41:09.720Z,10.3
2017-05-04T06:42:12.731Z,10.3
2017-05-04T06:43:14.661Z,10.3
2017-05-04T06:44:18.435Z,10.3
2017-05-04T06:45:20.272Z,10.3
2017-05-04T06:46:23.112Z,10.3
2017-05-04T06:47:26.202Z,10.3
2017-05-04T06:48:29.088Z,10.3
2017-05-04T06:49:30.922Z,10.2
2017-05-04T06:50:33.762Z,10.1
2017-05-04T06:51:36.600Z,10.1
2017-05-04T06:52:39.245Z,10.2
2017-05-04T06:53:41.582Z,10.2
2017-05-04T06:54:44.427Z,10.1
2017-05-04T06:55:47.680Z,10.1
2017-05-04T06:56:49.886Z,10.1
2017-05-04T06:57:52.474Z,10.1
2017-05-04T06:58:55.314Z,10.2
2017-05-04T06:59:57.656Z,10.2
2017-05-04T07:01:00.499Z,10.3
2017-05-04T07:02:02.837Z,10.3
2017-05-04T07:03:05.978Z,10.3
2017-05-04T07:04:08.317Z,10.3
2017-05-04T07:05:10.903Z,10.3
2017-05-04T07:06:13.483Z,10.3
2017-05-04T07:07:16.192Z,10.2
2017-05-04T07:08:19.201Z,10.2
2017-05-04T07:09:21.541Z,10.1
2017-05-04T07:10:24.388Z,10.2
2017-05-04T07:11:27.230Z,10.1
2017-05-04T07:12:29.568Z,10.2
2017-05-04T07:13:32.670Z,10.2
2017-05-04T07:14:35.007Z,10.3
2017-05-04T07:15:37.712Z,10.2
2017-05-04T07:16:40.418Z,10.2
2017-05-04T07:17:43.258Z,10.2
2017-05-04T07:18:45.850Z,10.2
2017-05-04T07:19:48.187Z,10.2
2017-05-04T07:20:50.889Z,10.2
2017-05-04T07:21:53.595Z,10.3
2017-05-04T07:22:56.440Z,10.3
2017-05-04T07:23:59.400Z,10.3
2017-05-04T07:25:01.736Z,10.3
2017-05-04T07:26:04.617Z,10.3
2017-05-04T07:27:06.957Z,10.2
2017-05-04T07:28:09.798Z,10.3
2017-05-04T07:29:12.940Z,10.2
2017-05-04T07:30:15.279Z,10.2
2017-05-04T07:31:17.486Z,10.1
2017-05-04T07:32:20.102Z,10.1
2017-05-04T07:33:22.951Z,10.1
2017-05-04T07:34:26.050Z,10.1
2017-05-04T07:35:28.392Z,10.2
2017-05-04T07:36:31.234Z,10.2
2017-05-04T07:37:33.572Z,10.2
2017-05-04T07:39:39.574Z,10.2
2017-05-04T07:40:41.774Z,10.1
2017-05-04T07:41:44.614Z,10.1
2017-05-04T07:42:46.955Z,10.2
2017-05-04T07:43:49.793Z,10.2
2017-05-04T07:44:52.915Z,10.2
2017-05-04T07:45:55.249Z,10.2
2017-05-04T07:46:58.087Z,10.2
2017-05-04T07:48:00.289Z,10.2
2017-05-04T07:49:03.128Z,10.2
2017-05-04T07:50:06.119Z,10.2
2017-05-04T07:51:08.326Z,10.2
2017-05-04T07:52:11.033Z,10.3
2017-05-04T07:53:13.872Z,10.3
2017-05-04T07:54:16.719Z,10.3
2017-05-04T07:55:19.458Z,10.3
2017-05-04T07:56:21.655Z,10.2
2017-05-04T07:57:24.498Z,10.2
2017-05-04T07:58:27.342Z,10.2
2017-05-04T07:59:29.678Z,10.3
2017-05-04T08:00:33.374Z,10.3
2017-05-04T08:01:35.205Z,10.2
2017-05-04T08:02:38.051Z,10.2
2017-05-04T08:03:40.256Z,10.2
2017-05-04T08:04:43.150Z,10.2
2017-05-04T08:05:46.246Z,10.2
2017-05-04T08:06:48.583Z,10.1
2017-05-04T08:07:51.426Z,10.2
2017-05-04T08:08:53.763Z,10.2
2017-05-04T08:09:56.604Z,10.3
2017-05-04T08:12:02.100Z,10.3
2017-05-04T08:13:04.439Z,10.3
2017-05-04T08:14:07.293Z,10.3
2017-05-04T08:15:10.141Z,10.3
2017-05-04T08:16:12.474Z,10.3
2017-05-04T08:17:15.567Z,10.3
2017-05-04T08:18:17.898Z,10.3
2017-05-04T08:19:20.767Z,10.3
2017-05-04T08:20:23.667Z,10.3
2017-05-04T08:21:25.740Z,10.3
2017-05-04T08:22:28.881Z,10.3
2017-05-04T08:23:31.217Z,10.3
2017-05-04T08:24:33.924Z,10.3
2017-05-04T08:25:36.766Z,10.3
2017-05-04T08:26:39.103Z,10.3
2017-05-04T08:27:42.117Z,10.3
2017-05-04T08:28:44.455Z,10.3
2017-05-04T08:29:47.303Z,10.3
2017-05-04T08:30:50.143Z,10.3
2017-05-04T08:31:52.539Z,10.4
2017-05-04T08:33:58.041Z,10.4
2017-05-04T08:35:00.884Z,10.3
2017-05-04T08:36:03.215Z,10.3
2017-05-04T08:38:08.328Z,10.4
2017-05-04T08:39:11.790Z,10.3
2017-05-04T08:40:14.545Z,10.3
2017-05-04T08:41:16.748Z,10.2
2017-05-04T08:42:19.590Z,10.2
2017-05-04T08:43:21.931Z,10.1
2017-05-04T08:44:25.127Z,10.2
2017-05-04T08:45:27.338Z,10.2
2017-05-04T08:46:30.181Z,10.2
2017-05-04T08:47:32.517Z,10.2
2017-05-04T08:48:35.349Z,10.2
2017-05-04T08:49:38.365Z,10.2
2017-05-04T08:50:40.702Z,10.1
2017-05-04T08:51:43.543Z,10.2
2017-05-04T08:52:45.881Z,10.2
2017-05-04T08:54:51.891Z,10.3
2017-05-04T08:55:54.226Z,10.3
2017-05-04T08:57:59.339Z,10.3
2017-05-04T08:59:02.179Z,10.3
2017-05-04T09:00:05.605Z,10.3
2017-05-04T09:01:07.434Z,10.3
2017-05-04T09:02:10.269Z,10.3
2017-05-04T09:03:12.772Z,10.3
2017-05-04T09:04:15.612Z,10.3
2017-05-04T09:05:18.352Z,10.3
2017-05-04T09:06:20.688Z,10.2
2017-05-04T09:07:23.529Z,10.2
2017-05-04T09:08:26.364Z,10.2
2017-05-04T09:09:28.702Z,10.3
2017-05-04T09:10:31.795Z,10.3
2017-05-04T09:11:34.130Z,10.3
2017-05-04T09:12:36.965Z,10.3
2017-05-04T09:13:39.299Z,10.3
2017-05-04T09:14:42.008Z,10.3
2017-05-04T09:15:45.098Z,10.3
2017-05-04T09:16:47.430Z,10.3
2017-05-04T09:17:50.134Z,10.3
2017-05-04T09:18:52.981Z,10.3
2017-05-04T09:19:55.694Z,10.3
2017-05-04T09:20:58.288Z,10.2
2017-05-04T09:22:00.626Z,10.2
2017-05-04T09:23:03.879Z,10.2
2017-05-04T09:24:06.087Z,10.1
2017-05-04T09:26:11.461Z,10.1
2017-05-04T09:27:14.169Z,10.1
2017-05-04T09:28:17.006Z,10.1
2017-05-04T09:29:19.339Z,10.1
2017-05-04T09:30:21.912Z,10.1
2017-05-04T09:31:25.003Z,10.1
2017-05-04T09:32:27.841Z,10.1
2017-05-04T09:33:30.046Z,10.2
2017-05-04T09:34:32.884Z,10.3
2017-05-04T09:35:35.726Z,10.3
2017-05-04T09:36:38.318Z,10.3
2017-05-04T09:37:41.159Z,10.3
2017-05-04T09:38:43.366Z,10.3
2017-05-04T09:39:46.211Z,10.3
2017-05-04T09:40:49.049Z,10.3
2017-05-04T09:41:51.422Z,10.3
2017-05-04T09:42:54.260Z,10.3
2017-05-04T09:43:57.097Z,10.2
2017-05-04T09:44:59.492Z,10.1
2017-05-04T09:46:02.333Z,10.1
2017-05-04T09:47:05.484Z,10.1
2017-05-04T09:48:07.824Z,10.1
2017-05-04T09:49:10.163Z,10.1
2017-05-04T09:50:13.001Z,10
2017-05-04T09:51:15.840Z,10
2017-05-04T09:52:18.799Z,10
2017-05-04T09:53:21.133Z,10
2017-05-04T09:54:23.466Z,10
2017-05-04T09:55:26.307Z,10
2017-05-04T09:56:29.145Z,10
2017-05-04T09:57:31.734Z,10
2017-05-04T09:58:34.586Z,10
2017-05-04T09:59:36.654Z,10
2017-05-04T10:00:39.492Z,10.1
2017-05-04T10:01:42.190Z,10.1
2017-05-04T10:02:45.146Z,10.1
2017-05-04T10:03:48.044Z,10.1
2017-05-04T10:04:50.441Z,10.1
2017-05-04T10:05:53.018Z,10.1
2017-05-04T10:06:55.864Z,10.1
2017-05-04T10:07:58.451Z,10
2017-05-04T10:09:01.340Z,10
2017-05-04T10:10:03.675Z,10
2017-05-04T10:11:06.515Z,10
2017-05-04T10:12:08.853Z,10
2017-05-04T10:13:11.997Z,10
2017-05-04T10:14:14.208Z,10.1
2017-05-04T10:16:19.463Z,10.1
2017-05-04T10:17:22.042Z,10.1
2017-05-04T10:18:24.996Z,10
2017-05-04T10:19:27.706Z,10
2017-05-04T10:20:30.542Z,10
2017-05-04T10:21:32.881Z,9.8
2017-05-04T10:22:35.588Z,9.8
2017-05-04T10:23:38.682Z,9.7
2017-05-04T10:24:41.014Z,9.7
2017-05-04T10:25:43.851Z,9.8
2017-05-04T10:27:49.102Z,9.8
2017-05-04T10:28:52.197Z,9.6
2017-05-04T10:29:54.532Z,9.6
2017-05-04T10:30:56.870Z,9.7
2017-05-04T10:31:59.710Z,9.7
2017-05-04T10:33:02.546Z,9.8
2017-05-04T10:34:05.005Z,9.8
2017-05-04T10:35:07.847Z,9.7
2017-05-04T10:36:10.181Z,9.7
2017-05-04T10:37:13.018Z,9.7
2017-05-04T10:38:15.855Z,9.6
2017-05-04T10:39:18.444Z,9.7
2017-05-04T10:40:21.151Z,9.6
2017-05-04T10:41:23.356Z,9.6
2017-05-04T10:42:26.198Z,9.5
2017-05-04T10:43:29.035Z,9.5
2017-05-04T10:44:32.126Z,9.6
2017-05-04T10:45:34.464Z,9.6
2017-05-04T10:46:37.230Z,9.6
2017-05-04T10:47:39.564Z,9.5
2017-05-04T10:48:42.410Z,9.5
2017-05-04T10:49:45.049Z,9.5
2017-05-04T10:50:47.390Z,9.5
2017-05-04T10:51:50.230Z,9.5
2017-05-04T10:52:52.935Z,9.5
2017-05-04T10:53:55.366Z,9.5
2017-05-04T10:54:58.511Z,9.5
2017-05-04T10:56:00.861Z,9.6
2017-05-04T10:57:03.603Z,9.6
2017-05-04T10:58:06.449Z,9.6
2017-05-04T10:59:08.514Z,9.6
2017-05-04T11:00:12.523Z,9.5
2017-05-04T11:01:14.227Z,9.5
2017-05-04T11:02:16.932Z,9.4
2017-05-04T11:03:19.772Z,9.3
2017-05-04T11:04:22.106Z,9.4
2017-05-04T11:05:24.794Z,9.5
2017-05-04T11:06:27.681Z,9.5
2017-05-04T11:07:30.021Z,9.5
2017-05-04T11:08:32.864Z,9.6
2017-05-04T11:09:35.702Z,9.6
2017-05-04T11:10:38.658Z,9.7
2017-05-04T11:12:43.396Z,9.5
2017-05-04T11:14:48.639Z,9.3
2017-05-04T11:15:51.599Z,9.3
2017-05-04T11:16:53.937Z,9.3
2017-05-04T11:17:56.777Z,9.3
2017-05-04T11:18:59.620Z,9.4
2017-05-04T11:20:01.952Z,9.3
2017-05-04T11:21:04.910Z,9.4
2017-05-04T11:22:07.249Z,9.4
2017-05-04T11:23:09.956Z,9.4
2017-05-04T11:24:12.662Z,9.4
2017-05-04T11:25:15.372Z,9.5
2017-05-04T11:26:18.466Z,9.5
2017-05-04T11:27:20.800Z,9.5
2017-05-04T11:28:23.136Z,9.5
2017-05-04T11:29:25.985Z,9.5
2017-05-04T11:30:28.831Z,9.5
2017-05-04T11:31:31.291Z,9.5
2017-05-04T11:32:34.133Z,9.5
2017-05-04T11:33:36.469Z,9.5
2017-05-04T11:34:39.309Z,9.6
2017-05-04T11:35:42.014Z,9.6
2017-05-04T11:36:44.975Z,9.7
2017-05-04T11:37:47.313Z,9.8
2017-05-04T11:38:50.161Z,9.8
2017-05-04T11:39:52.540Z,9.8
2017-05-04T11:40:55.388Z,9.8
2017-05-04T11:43:00.746Z,9.6
2017-05-04T11:44:02.948Z,9.5
2017-05-04T11:45:05.790Z,9.5
2017-05-04T11:46:08.523Z,9.5
2017-05-04T11:47:11.230Z,9.5
2017-05-04T11:48:14.191Z,9.5
2017-05-04T11:49:16.527Z,9.4
2017-05-04T11:50:19.182Z,9.3
2017-05-04T11:51:22.024Z,9.3
2017-05-04T11:52:24.260Z,9.3
2017-05-04T11:53:27.355Z,9.3
2017-05-04T11:54:29.690Z,9.5
2017-05-04T11:55:32.533Z,9.5
2017-05-04T11:56:34.887Z,9.6
2017-05-04T11:57:37.732Z,9.6
2017-05-04T11:58:40.873Z,9.6
2017-05-04T11:59:43.207Z,9.6
2017-05-04T12:00:45.544Z,9.5
2017-05-04T12:01:48.385Z,9.5
2017-05-04T12:02:51.092Z,9.6
2017-05-04T12:03:54.048Z,9.6
2017-05-04T12:04:56.390Z,9.6
2017-05-04T12:05:59.233Z,9.6
2017-05-04T12:07:01.571Z,9.6
2017-05-04T12:08:04.951Z,9.6
2017-05-04T12:09:07.039Z,9.6
2017-05-04T12:11:12.314Z,9.6
2017-05-04T12:12:15.019Z,9.6
2017-05-04T12:13:17.728Z,9.6
2017-05-04T12:14:20.737Z,9.6
2017-05-04T12:15:23.071Z,9.7
2017-05-04T12:16:25.776Z,9.7
2017-05-04T12:17:28.115Z,9.7
2017-05-04T12:18:30.815Z,9.7
2017-05-04T12:19:33.903Z,9.7
2017-05-04T12:20:36.109Z,9.7
2017-05-04T12:21:38.951Z,9.6
2017-05-04T12:22:41.792Z,9.6
2017-05-04T12:23:44.000Z,9.7
2017-05-04T12:24:47.091Z,9.7
2017-05-04T12:25:49.425Z,9.7
2017-05-04T12:26:52.264Z,9.7
2017-05-04T12:27:54.603Z,9.6
2017-05-04T12:28:57.303Z,9.6
2017-05-04T12:30:00.310Z,9.6
2017-05-04T12:31:02.648Z,9.5
2017-05-04T12:32:05.544Z,9.5
2017-05-04T12:33:08.382Z,9.5
2017-05-04T12:34:10.584Z,9.5
2017-05-04T12:35:13.592Z,9.6
2017-05-04T12:36:15.969Z,9.6
2017-05-04T12:37:18.811Z,9.6
2017-05-04T12:38:21.652Z,9.6
2017-05-04T12:39:24.031Z,9.6
2017-05-04T12:40:27.125Z,9.6
2017-05-04T12:41:29.458Z,9.7
2017-05-04T12:42:32.302Z,9.7
2017-05-04T12:43:34.649Z,9.8
2017-05-04T12:44:37.487Z,9.7
2017-05-04T12:45:40.075Z,9.7
2017-05-04T12:46:42.782Z,9.6
2017-05-04T12:47:45.120Z,9.6
2017-05-04T12:48:47.961Z,9.6
2017-05-04T12:49:50.799Z,9.6
2017-05-04T12:50:53.388Z,9.6
2017-05-04T12:51:56.227Z,9.6
2017-05-04T12:52:58.470Z,9.5
2017-05-04T12:54:01.869Z,9.4
2017-05-04T12:55:04.078Z,9.4
2017-05-04T12:56:06.668Z,9.4
2017-05-04T12:57:09.519Z,9.4
2017-05-04T12:58:11.857Z,9.5
2017-05-04T12:59:14.564Z,9.4
2017-05-04T13:00:17.266Z,9.5
2017-05-04T13:01:20.415Z,9.5
2017-05-04T13:02:22.751Z,9.5
2017-05-04T13:03:24.952Z,9.6
2017-05-04T13:04:27.794Z,9.6
2017-05-04T13:05:30.501Z,9.6
2017-05-04T13:06:33.455Z,9.5
2017-05-04T13:07:35.806Z,9.5
2017-05-04T13:08:38.692Z,9.5
2017-05-04T13:09:41.034Z,9.5
2017-05-04T13:10:43.875Z,9.4
2017-05-04T13:11:46.974Z,9.4
2017-05-04T13:12:49.318Z,9.5
2017-05-04T13:13:52.229Z,9.5
2017-05-04T13:14:54.429Z,9.5
2017-05-04T13:15:57.273Z,9.5
2017-05-04T13:16:59.865Z,9.5
2017-05-04T13:18:02.702Z,9.5
2017-05-04T13:19:05.085Z,9.6
2017-05-04T13:20:07.791Z,9.5
2017-05-04T13:21:10.500Z,9.5
2017-05-04T13:22:13.643Z,9.6
2017-05-04T13:23:15.730Z,9.6
2017-05-04T13:24:18.572Z,9.7
2017-05-04T13:25:20.909Z,9.7
2017-05-04T13:26:23.750Z,9.7
2017-05-04T13:27:26.820Z,9.5
2017-05-04T13:28:29.158Z,9.5
2017-05-04T13:29:31.491Z,9.5
2017-05-04T13:30:34.346Z,9.5
2017-05-04T13:32:39.845Z,9.6
2017-05-04T13:33:42.180Z,9.6
2017-05-04T13:34:45.022Z,9.6
2017-05-04T13:35:47.866Z,9.7
2017-05-04T13:36:50.206Z,9.7
2017-05-04T13:37:53.860Z,9.6
2017-05-04T13:38:55.694Z,9.5
2017-05-04T13:39:58.529Z,9.4
2017-05-04T13:41:00.731Z,9.3
2017-05-04T13:42:03.572Z,9.3
2017-05-04T13:43:06.714Z,9.3
2017-05-04T13:44:09.053Z,9.3
2017-05-04T13:45:11.391Z,9.3
2017-05-04T13:46:14.095Z,9.5
2017-05-04T13:47:16.937Z,9.5
2017-05-04T13:48:20.076Z,9.6
2017-05-04T13:49:22.414Z,9.5
2017-05-04T13:50:24.755Z,9.5
2017-05-04T13:52:30.563Z,9.5
2017-05-04T13:53:33.201Z,9.5
2017-05-04T13:54:35.540Z,9.5
2017-05-04T13:55:38.386Z,9.5
2017-05-04T13:56:40.721Z,9.4
2017-05-04T13:57:43.427Z,9.4
2017-05-04T13:58:46.575Z,9.5
2017-05-04T13:59:49.467Z,9.5
2017-05-04T14:00:51.847Z,9.5
2017-05-04T14:02:56.591Z,9.5
2017-05-04T14:03:59.733Z,9.6
2017-05-04T14:05:01.936Z,9.6
2017-05-04T14:06:04.776Z,9.6
2017-05-04T14:07:07.480Z,9.6
2017-05-04T14:08:10.048Z,9.5
2017-05-04T14:09:13.006Z,9.4
2017-05-04T14:10:15.074Z,9.5
2017-05-04T14:11:17.938Z,9.4
2017-05-04T14:12:20.785Z,9.5
2017-05-04T14:13:23.125Z,9.5
2017-05-04T14:14:26.082Z,9.4
2017-05-04T14:15:28.790Z,9.3
2017-05-04T14:16:31.169Z,9.3
2017-05-04T14:17:34.021Z,9.3
2017-05-04T14:18:36.415Z,9.3
2017-05-04T14:19:39.559Z,9.3
2017-05-04T14:20:42.440Z,9.3
2017-05-04T14:21:44.772Z,9.4
2017-05-04T14:22:47.108Z,9.4
2017-05-04T14:23:49.952Z,9.5
2017-05-04T14:24:53.040Z,9.4
2017-05-04T14:25:55.372Z,9.5
2017-05-04T14:26:57.710Z,9.5
2017-05-04T14:28:00.557Z,9.5
2017-05-04T14:29:03.394Z,9.5
2017-05-04T14:30:05.899Z,9.4
2017-05-04T14:32:11.014Z,9.3
2017-05-04T14:33:14.401Z,9.3
2017-05-04T14:34:16.100Z,9.3
2017-05-04T14:35:19.200Z,9.3
2017-05-04T14:36:22.041Z,9.4
2017-05-04T14:37:24.289Z,9.3
2017-05-04T14:39:29.533Z,9.3
2017-05-04T14:40:32.408Z,9.3
2017-05-04T14:41:35.244Z,9.3
2017-05-04T14:42:37.580Z,9.3
2017-05-04T14:43:40.970Z,9.3
2017-05-04T14:44:42.806Z,9.3
2017-05-04T14:45:45.901Z,9.3
2017-05-04T14:46:48.241Z,9.2
2017-05-04T14:47:51.079Z,9.2
2017-05-04T14:48:53.783Z,9.3
2017-05-04T14:49:56.120Z,9.3
2017-05-04T14:50:59.088Z,9.4
2017-05-04T14:52:01.429Z,9.4
2017-05-04T14:53:04.274Z,9.5
2017-05-04T14:54:07.113Z,9.5
2017-05-04T14:55:09.446Z,9.5
2017-05-04T14:56:12.403Z,9.5
2017-05-04T14:57:14.808Z,9.5
2017-05-04T14:58:17.523Z,9.5
2017-05-04T14:59:20.226Z,9.5
2017-05-04T15:00:22.932Z,9.5
2017-05-04T15:01:25.515Z,9.5
2017-05-04T15:02:28.355Z,9.5